Aviation Digital Data Service (ADDS)

Output produced by METARs form (1509 UTC 30 September 2016)
found at http://aviationweather.gov/adds/metars/
 
KLBT 301401Z 3014/0112 14004KT P6SM VCSH SCT010 BKN070 
     FM301700 20007KT P6SM VCSH SCT020 BKN035 
     FM302300 23003KT P6SM SKC